MROCSKCL

Guest
Details From MROC - San Jose Juan Santamaria Intl
To SKCL - Alfonso Bonilla Aragon Intl
Flight Number -
Tags Generated
Created
Modified
Stats Distance 607 nm / 1,125 km
Max Altitude 0 ft / 0 m
Waypoints 3
Social Downloads 2
Likes 0
Share VATSIM

Download

Looking for another format? Having issues loading an existing format? Contact us
Advertisement - Login to hide

Notes

Generated

Route

MROC VADUN SKCL

ID Type Via Altitude Latitude Longitude Leg Dist Tot Dist Heading (true) Name
O MROC APT - 0 ft / 0 m 9.98900˚ -84.22186˚ - 0 nm - -
VADUN FIX - 0 ft / 0 m 3.75944˚ -76.61167˚ 587 nm 587 nm 129° / 130° -
O SKCL APT - 0 ft / 0 m 3.52990˚ -76.38392˚ 19 nm 607 nm 135° / 135° -

Altitude Profile

Advertisement - Login to hide

Weather


0- 5 10 15 20 25 30 35+ Temperature / ° C

Clouds and Precipitation
Forecast for 2018-05-25 18:00 UTC. Updated 2 hours ago

Ground ~20,000 ft ~40,000 ft Winds

MROC

Details ICAO MROC (SJO)
Name San Jose Juan Santamaria Intl
Region Costa Rica
Timezone America/Costa_Rica (UTC-6.0)
Stats Elevation 3,021 ft / 921 m (AMSL)
Location 9.993927° -84.208884°
Runways 1
Magnetic Variation 1.783° W

METAR

MROC 251900Z 26011KT 230V290 9999 VCTS FEW020CB FEW025 SCT035 27/22 A2995 NOSIG

Decode

TAF

TAF MROC 251700Z 2518/2618 22006KT 9999 FEW035 TX29/2518Z TN19/2610Z TEMPO 2519/2523 28012KT 5000 TSRA SCT015CB BKN025 TEMPO 2600/2604 VRB02KT 1500 RA BR SCT001 BKN012 BECMG 2604/2606 06006KT

Decode

Departure Runways

ID Width Length Bearing (true) Bearing (mag) Surface Threshold Offset Overrun Length
07 151 ft / 46 m 9,994 ft / 3,046 m 68.91° 70.69° Asphalt 0 ft / 0 m 200 ft / 61 m
25 151 ft / 46 m 9,994 ft / 3,046 m 248.92° 250.70° Asphalt 1,969 ft / 600 m 200 ft / 61 m

SKCL

Details ICAO SKCL (CLO)
Name ALFONSO BONILLA ARAGON INTL
Region Colombia
Timezone America/Bogota (UTC-5.0)
Stats Elevation 3,162 ft / 964 m (AMSL)
Location 3.543221° -76.381587°
Runways 1
Magnetic Variation 5.649° W

METAR

SKCL 251900Z 16005KT 9999 FEW025 BKN120 30/21 A2991

Decode

TAF

Not found

Destination Runways

ID Width Length Bearing (true) Bearing (mag) Surface Threshold Offset Overrun Length
01 148 ft / 45 m 9,869 ft / 3,008 m 9.91° 15.56° Asphalt 0 ft / 0 m 50 ft / 15 m
19 148 ft / 45 m 9,869 ft / 3,008 m 189.91° 195.56° Asphalt 0 ft / 0 m 65 ft / 20 m

Approach Navaids

Runway Type Ident Frequency Range Bearing (true) Bearing (mag) Slope Elevation
01 Localiser IPAS 109.90 MHz 18 nm / 33 km 9.69° 15.34° - 3,162 ft / 964 m (AMSL)
01 Glidescope IPAS 109.90 MHz 10 nm / 19 km 9.91° 15.56° 2.50° 3,162 ft / 964 m (AMSL)

Popular Alternatives